Time;durP1;ratioP1;P1;durP2;ratioP2;P2;SDS_P1;SDS_P2;PMS_P1;PMS_P2;Temp;Humidity;BMP_temperature;BMP_pressure;BME280_temperature;BME280_humidity;BME280_pressure;Samples;Min_cycle;Max_cycle;Signal;HPM_P1;HPM_P2
2023/08/31 00:02:10;;;;;;;3.65;2.60;;;12.80;99.90;;;;;;5054204;28;20198;-50
2023/08/31 00:04:35;;;;;;;3.78;2.42;;;12.70;99.90;;;;;;5054178;28;20222;-48
2023/08/31 00:07:01;;;;;;;3.40;2.45;;;12.70;99.90;;;;;;5054040;28;20189;-50
2023/08/31 00:09:27;;;;;;;3.00;2.53;;;12.70;99.90;;;;;;5053927;28;20171;-47
2023/08/31 00:11:53;;;;;;;3.20;2.50;;;12.70;99.90;;;;;;5054270;28;20182;-48
2023/08/31 00:14:18;;;;;;;4.10;2.53;;;12.70;99.90;;;;;;5054193;28;20680;-48
2023/08/31 00:16:47;;;;;;;2.88;2.58;;;12.70;99.90;;;;;;5054122;28;20233;-49
2023/08/31 00:19:14;;;;;;;2.65;2.42;;;12.70;99.90;;;;;;5053572;28;20226;-50
2023/08/31 00:21:40;;;;;;;2.65;2.40;;;12.70;99.90;;;;;;5053846;28;20583;-47
2023/08/31 00:24:07;;;;;;;3.95;2.72;;;12.70;99.90;;;;;;5053642;28;20175;-49
2023/08/31 00:26:33;;;;;;;3.45;2.45;;;12.70;99.90;;;;;;5053859;28;20179;-48
2023/08/31 00:28:59;;;;;;;2.67;2.45;;;12.70;99.90;;;;;;5053922;28;20244;-51
2023/08/31 00:31:25;;;;;;;3.38;2.85;;;12.70;99.90;;;;;;5053702;28;20696;-52
2023/08/31 00:33:51;;;;;;;5.28;3.13;;;12.70;99.90;;;;;;5053513;28;20219;-52
2023/08/31 00:36:18;;;;;;;3.78;3.13;;;12.70;99.90;;;;;;5053604;28;20276;-51
2023/08/31 00:38:44;;;;;;;3.60;3.08;;;12.70;99.90;;;;;;5053547;28;20179;-52
2023/08/31 00:41:10;;;;;;;5.20;3.25;;;12.70;99.90;;;;;;5053642;28;20175;-48
2023/08/31 00:43:36;;;;;;;5.15;3.17;;;12.70;99.90;;;;;;5053496;28;20183;-53
2023/08/31 00:46:02;;;;;;;4.28;3.22;;;12.70;99.90;;;;;;5053515;28;20171;-49
2023/08/31 00:48:28;;;;;;;4.15;3.47;;;12.80;99.90;;;;;;5053356;28;20179;-51
2023/08/31 00:50:53;;;;;;;6.00;3.20;;;12.70;99.90;;;;;;5053446;28;20206;-51
2023/08/31 00:53:19;;;;;;;4.18;3.05;;;12.70;99.90;;;;;;5053440;28;20270;-49
2023/08/31 00:55:45;;;;;;;3.42;3.13;;;12.80;99.90;;;;;;5053470;28;20266;-48
2023/08/31 00:58:11;;;;;;;5.00;3.40;;;12.80;99.90;;;;;;5053364;28;20217;-50
2023/08/31 01:01:22;;;;;;;4.80;3.38;;;12.70;99.90;;;;;;5053323;28;20579;-50
2023/08/31 01:04:43;;;;;;;3.85;3.38;;;12.80;99.90;;;;;;5042976;28;20222;-49
2023/08/31 01:07:19;;;;;;;5.50;3.63;;;12.70;99.90;;;;;;5022331;28;20187;-49
2023/08/31 01:10:10;;;;;;;4.63;3.28;;;12.70;99.90;;;;;;5053162;28;20632;-49
2023/08/31 01:12:42;;;;;;;4.72;3.35;;;12.70;99.90;;;;;;5053156;28;20591;-50
2023/08/31 01:15:11;;;;;;;4.18;3.55;;;12.70;99.90;;;;;;5053145;28;20211;-51
2023/08/31 01:17:43;;;;;;;3.80;3.40;;;12.60;99.90;;;;;;5053154;28;20179;-51
2023/08/31 01:20:11;;;;;;;5.07;3.42;;;12.60;99.90;;;;;;5053135;28;20276;-51
2023/08/31 01:22:47;;;;;;;4.38;3.65;;;12.60;99.90;;;;;;5053166;28;20180;-53
2023/08/31 01:25:13;;;;;;;5.00;3.28;;;12.60;99.90;;;;;;5053147;28;20175;-52
2023/08/31 01:27:40;;;;;;;3.92;3.20;;;12.60;99.90;;;;;;5053108;28;20175;-51
2023/08/31 01:30:06;;;;;;;3.88;3.35;;;12.60;99.90;;;;;;5052971;28;20211;-50
2023/08/31 01:32:32;;;;;;;3.90;3.45;;;12.60;99.90;;;;;;5052854;28;20186;-49
2023/08/31 01:35:01;;;;;;;5.03;3.50;;;12.60;99.90;;;;;;5052689;28;20685;-49
2023/08/31 01:37:48;;;;;;;5.45;4.10;;;12.60;99.90;;;;;;5053028;28;20178;-48
2023/08/31 01:40:21;;;;;;;7.05;3.90;;;12.60;99.90;;;;;;5052957;28;20599;-51
2023/08/31 01:42:47;;;;;;;5.22;3.90;;;12.50;99.90;;;;;;5053174;28;20172;-49
2023/08/31 01:45:19;;;;;;;3.67;3.10;;;12.60;99.90;;;;;;5052708;28;20179;-52
2023/08/31 01:47:45;;;;;;;4.85;4.07;;;12.50;99.90;;;;;;5053083;28;20178;-49
2023/08/31 01:50:12;;;;;;;4.40;3.78;;;12.50;99.90;;;;;;5052932;28;20180;-50
2023/08/31 01:52:37;;;;;;;6.05;3.55;;;12.60;99.90;;;;;;5052814;28;20183;-50
2023/08/31 01:55:05;;;;;;;3.90;3.53;;;12.60;99.90;;;;;;5052721;28;20238;-49
2023/08/31 01:57:30;;;;;;;5.60;3.78;;;12.60;99.90;;;;;;5052647;28;20266;-53
2023/08/31 01:59:56;;;;;;;4.50;4.10;;;12.50;99.90;;;;;;5052631;28;20308;-50
2023/08/31 02:02:21;;;;;;;5.22;3.80;;;12.60;99.90;;;;;;5052799;28;20180;-51
2023/08/31 02:04:47;;;;;;;4.70;4.07;;;12.60;99.90;;;;;;5055312;28;20190;-50
2023/08/31 02:07:13;;;;;;;5.10;4.00;;;12.60;99.90;;;;;;5056465;28;20226;-49
2023/08/31 02:09:39;;;;;;;4.40;3.67;;;12.60;99.90;;;;;;5056363;28;20222;-50
2023/08/31 02:12:05;;;;;;;6.30;4.28;;;12.60;99.90;;;;;;5056582;28;20207;-51
2023/08/31 02:14:30;;;;;;;4.30;3.80;;;12.60;99.90;;;;;;5056078;28;20290;-52
2023/08/31 02:16:56;;;;;;;6.05;4.15;;;12.60;99.90;;;;;;5056410;28;20178;-49
2023/08/31 02:19:22;;;;;;;5.80;3.92;;;12.60;99.90;;;;;;5056067;28;20277;-49
2023/08/31 02:21:47;;;;;;;4.65;3.95;;;12.60;99.90;;;;;;5056362;28;20241;-51
2023/08/31 02:24:13;;;;;;;5.30;4.30;;;12.60;99.90;;;;;;5056141;28;20179;-52
2023/08/31 02:26:39;;;;;;;5.72;4.00;;;12.60;99.90;;;;;;5038092;28;20632;-49
2023/08/31 02:29:04;;;;;;;6.63;4.13;;;12.60;99.90;;;;;;5056174;28;20186;-51
2023/08/31 02:31:30;;;;;;;6.10;3.97;;;12.60;99.90;;;;;;5055898;28;20210;-52
2023/08/31 02:33:56;;;;;;;4.13;3.72;;;12.60;99.90;;;;;;5055974;28;20202;-51
2023/08/31 02:36:21;;;;;;;5.60;4.18;;;12.60;99.90;;;;;;5055998;28;20180;-51
2023/08/31 02:38:47;;;;;;;5.07;4.03;;;12.60;99.90;;;;;;5055873;28;20181;-52
2023/08/31 02:41:12;;;;;;;6.38;4.55;;;12.60;99.90;;;;;;5055743;28;20184;-51
2023/08/31 02:43:39;;;;;;;6.72;4.30;;;12.70;99.90;;;;;;5055682;28;20308;-49
2023/08/31 02:46:05;;;;;;;5.13;4.40;;;12.70;99.90;;;;;;5055867;28;20172;-49
2023/08/31 02:48:32;;;;;;;8.40;4.40;;;12.70;99.90;;;;;;5055768;28;20175;-51
2023/08/31 02:51:02;;;;;;;4.18;3.80;;;12.70;99.90;;;;;;5055639;28;20176;-52
2023/08/31 02:53:30;;;;;;;4.55;4.15;;;12.60;99.90;;;;;;5055350;28;20176;-49
2023/08/31 02:55:56;;;;;;;4.43;3.60;;;12.70;99.90;;;;;;5055455;28;20274;-47
2023/08/31 02:58:22;;;;;;;5.47;3.88;;;12.70;99.90;;;;;;5055358;28;20241;-51
2023/08/31 03:00:48;;;;;;;4.53;4.10;;;12.70;99.90;;;;;;5055545;28;20171;-47
2023/08/31 03:03:17;;;;;;;4.72;3.60;;;12.70;99.90;;;;;;5055502;28;20179;-52
2023/08/31 03:05:43;;;;;;;5.00;3.92;;;12.70;99.90;;;;;;5055448;28;20180;-52
2023/08/31 03:08:09;;;;;;;4.22;3.72;;;12.70;99.90;;;;;;5055229;28;20210;-51
2023/08/31 03:10:36;;;;;;;5.38;4.10;;;12.70;99.90;;;;;;5055226;28;20635;-51
2023/08/31 03:13:01;;;;;;;6.38;4.20;;;12.70;99.90;;;;;;5055161;28;20179;-50
2023/08/31 03:15:27;;;;;;;4.28;3.58;;;12.60;99.90;;;;;;5055049;28;20214;-52
2023/08/31 03:17:53;;;;;;;4.78;3.60;;;12.60;99.90;;;;;;5055290;28;20202;-49
2023/08/31 03:20:18;;;;;;;4.07;3.70;;;12.60;99.90;;;;;;5054976;28;20219;-48
2023/08/31 03:22:44;;;;;;;5.35;3.90;;;12.60;99.90;;;;;;5054885;28;20225;-52
2023/08/31 03:25:10;;;;;;;5.22;3.53;;;12.60;99.90;;;;;;5053681;28;20187;-51
2023/08/31 03:27:35;;;;;;;4.00;3.65;;;12.60;99.90;;;;;;5054859;28;20646;-48
2023/08/31 03:30:03;;;;;;;3.83;3.38;;;12.60;99.90;;;;;;5055058;28;20639;-49
2023/08/31 03:32:28;;;;;;;3.65;3.20;;;12.50;99.90;;;;;;5055050;28;20210;-51
2023/08/31 03:34:54;;;;;;;4.57;3.45;;;12.50;99.90;;;;;;5054739;28;20246;-48
2023/08/31 03:37:21;;;;;;;3.63;3.30;;;12.50;99.90;;;;;;5054745;28;20179;-51
2023/08/31 03:39:50;;;;;;;4.28;3.25;;;12.50;99.90;;;;;;5054655;28;20743;-49
2023/08/31 03:42:16;;;;;;;4.55;3.67;;;12.50;99.90;;;;;;5054534;28;20179;-52
2023/08/31 03:44:41;;;;;;;4.35;3.95;;;12.60;99.90;;;;;;5054797;28;20532;-50
2023/08/31 03:47:07;;;;;;;5.82;3.70;;;12.60;99.90;;;;;;5054705;28;20171;-51
2023/08/31 03:49:34;;;;;;;4.50;3.90;;;12.60;99.90;;;;;;5054730;28;20262;-51
2023/08/31 03:52:00;;;;;;;5.75;4.13;;;12.60;99.90;;;;;;5054354;28;20179;-53
2023/08/31 03:54:26;;;;;;;7.72;4.10;;;12.60;99.90;;;;;;5054388;28;20202;-50
2023/08/31 03:56:51;;;;;;;6.07;4.20;;;12.70;99.90;;;;;;5054215;28;20175;-52
2023/08/31 03:59:18;;;;;;;5.00;4.45;;;12.80;99.90;;;;;;5054503;28;20178;-48
2023/08/31 04:01:44;;;;;;;5.00;4.00;;;12.80;99.90;;;;;;5054309;28;20167;-52
2023/08/31 04:04:09;;;;;;;5.15;4.40;;;12.80;99.90;;;;;;5054288;28;20187;-52
2023/08/31 04:06:35;;;;;;;6.07;4.40;;;12.80;99.90;;;;;;5054163;28;20202;-51
2023/08/31 04:09:01;;;;;;;5.05;4.50;;;12.70;99.90;;;;;;5054112;28;20179;-51
2023/08/31 04:11:26;;;;;;;4.68;4.25;;;12.80;99.90;;;;;;5054278;28;20257;-50
2023/08/31 04:13:53;;;;;;;5.15;4.32;;;12.80;99.90;;;;;;5054085;28;20195;-49
2023/08/31 04:16:18;;;;;;;5.40;4.10;;;12.90;99.90;;;;;;5054109;28;20168;-53
2023/08/31 04:18:47;;;;;;;6.05;4.95;;;12.90;99.90;;;;;;5053838;28;20171;-48
2023/08/31 04:21:13;;;;;;;6.43;4.90;;;12.90;99.90;;;;;;5053873;28;20227;-49
2023/08/31 04:23:38;;;;;;;6.50;4.63;;;12.80;99.90;;;;;;5052569;28;20181;-51
2023/08/31 04:26:14;;;;;;;5.25;4.30;;;12.80;99.90;;;;;;5053360;28;20171;-48
2023/08/31 04:28:41;;;;;;;4.63;4.15;;;12.70;99.90;;;;;;5053956;28;20652;-50
2023/08/31 04:31:07;;;;;;;5.60;4.13;;;12.70;99.90;;;;;;5053800;28;20175;-51
2023/08/31 04:33:37;;;;;;;5.40;4.10;;;12.80;99.90;;;;;;5053546;28;20187;-47
2023/08/31 04:36:04;;;;;;;6.28;4.30;;;12.70;99.90;;;;;;5053818;28;20187;-52
2023/08/31 04:38:31;;;;;;;5.35;4.75;;;12.80;99.90;;;;;;5053515;28;20206;-50
2023/08/31 04:41:00;;;;;;;6.93;4.47;;;12.70;99.90;;;;;;5053720;28;20232;-52
2023/08/31 04:43:26;;;;;;;5.90;4.10;;;12.70;99.90;;;;;;5053637;28;20175;-48
2023/08/31 04:45:53;;;;;;;7.65;4.70;;;12.70;99.90;;;;;;5052524;28;20214;-51
2023/08/31 04:48:18;;;;;;;6.40;4.60;;;12.70;99.90;;;;;;5052335;28;20175;-52
2023/08/31 04:50:44;;;;;;;5.20;4.63;;;12.70;99.90;;;;;;5051726;28;20628;-49
2023/08/31 04:53:10;;;;;;;4.90;4.15;;;12.70;99.90;;;;;;5053148;28;20258;-47
2023/08/31 04:55:35;;;;;;;5.45;4.43;;;12.70;99.90;;;;;;5053489;28;20567;-52
2023/08/31 04:58:01;;;;;;;4.68;4.18;;;12.70;99.90;;;;;;5053048;28;20699;-49
2023/08/31 05:00:27;;;;;;;6.88;4.60;;;12.70;99.90;;;;;;5053304;28;20175;-51
2023/08/31 05:02:52;;;;;;;7.15;4.68;;;12.70;99.90;;;;;;5053058;28;20175;-51
2023/08/31 05:05:18;;;;;;;7.35;4.80;;;12.70;99.90;;;;;;5053056;28;20215;-52
2023/08/31 05:07:44;;;;;;;5.70;5.20;;;12.70;99.90;;;;;;5053238;28;20179;-48
2023/08/31 05:10:10;;;;;;;7.63;5.13;;;12.70;99.90;;;;;;5052802;28;20179;-47
2023/08/31 05:12:35;;;;;;;6.22;4.93;;;12.70;99.90;;;;;;5053030;28;20632;-49
2023/08/31 05:15:02;;;;;;;5.55;5.03;;;12.70;99.90;;;;;;5052964;28;20205;-47
2023/08/31 05:17:28;;;;;;;7.45;5.72;;;12.70;99.90;;;;;;5053044;28;20171;-50
2023/08/31 05:19:54;;;;;;;8.07;6.15;;;12.70;99.90;;;;;;5052913;28;20219;-49
2023/08/31 05:22:19;;;;;;;6.80;6.10;;;12.80;99.90;;;;;;5052942;28;20674;-48
2023/08/31 05:24:45;;;;;;;8.60;6.18;;;12.80;99.90;;;;;;5053233;28;20179;-50
2023/08/31 05:27:11;;;;;;;8.38;6.28;;;12.80;99.90;;;;;;5052722;28;20179;-51
2023/08/31 05:29:36;;;;;;;8.95;6.55;;;12.90;99.90;;;;;;5053101;28;20198;-51
2023/08/31 05:32:02;;;;;;;8.70;6.43;;;12.90;99.90;;;;;;5052950;28;20534;-48
2023/08/31 05:34:28;;;;;;;7.40;6.63;;;13.00;99.90;;;;;;5052850;28;20206;-49
2023/08/31 05:36:53;;;;;;;8.95;7.10;;;13.00;99.90;;;;;;5052784;28;20589;-48
2023/08/31 05:39:19;;;;;;;9.57;7.45;;;13.00;99.90;;;;;;5055021;28;20185;-48
2023/08/31 05:41:45;;;;;;;8.70;7.40;;;13.00;99.90;;;;;;5057026;28;20540;-50
2023/08/31 05:44:11;;;;;;;9.52;7.70;;;13.00;99.90;;;;;;5056923;28;20202;-51
2023/08/31 05:46:38;;;;;;;10.40;7.75;;;12.90;99.90;;;;;;5056795;28;20632;-49
2023/08/31 05:49:04;;;;;;;9.50;7.80;;;13.00;99.90;;;;;;5056670;28;20179;-52
2023/08/31 05:51:29;;;;;;;9.00;7.57;;;13.10;99.90;;;;;;5056678;28;20186;-52
2023/08/31 05:53:55;;;;;;;11.00;7.97;;;13.10;99.90;;;;;;5056810;28;20249;-50
2023/08/31 05:56:20;;;;;;;11.82;7.88;;;13.20;99.90;;;;;;5056784;28;20190;-50
2023/08/31 05:58:47;;;;;;;8.95;7.22;;;13.20;99.90;;;;;;5056662;28;20237;-50
2023/08/31 06:01:13;;;;;;;8.43;7.60;;;13.30;99.90;;;;;;5056452;28;20609;-50
2023/08/31 06:03:38;;;;;;;8.65;7.55;;;13.30;99.90;;;;;;5056534;28;20220;-50
2023/08/31 06:06:04;;;;;;;12.20;8.48;;;13.40;99.90;;;;;;5056325;28;20171;-51
2023/08/31 06:08:30;;;;;;;10.02;8.75;;;13.40;99.90;;;;;;5056343;28;20171;-51
2023/08/31 06:10:56;;;;;;;12.13;9.02;;;13.60;99.90;;;;;;5055348;28;20179;-50
2023/08/31 06:13:21;;;;;;;10.52;8.02;;;13.60;99.90;;;;;;5056382;28;20171;-50
2023/08/31 06:15:47;;;;;;;10.63;7.85;;;13.80;99.90;;;;;;5056299;28;20215;-52
2023/08/31 06:18:13;;;;;;;9.27;8.18;;;13.90;99.90;;;;;;5056258;28;20663;-52
2023/08/31 06:20:39;;;;;;;11.75;7.38;;;13.90;99.90;;;;;;5055862;28;20718;-50
2023/08/31 06:23:05;;;;;;;7.38;6.57;;;14.00;99.90;;;;;;5056323;28;20207;-50
2023/08/31 06:25:31;;;;;;;11.63;6.82;;;13.90;99.90;;;;;;5056162;28;20677;-52
2023/08/31 06:27:57;;;;;;;9.10;6.35;;;14.10;99.90;;;;;;5056083;28;20179;-52
2023/08/31 06:30:23;;;;;;;9.80;5.47;;;14.10;99.90;;;;;;5056000;28;20177;-49
2023/08/31 06:32:50;;;;;;;9.35;5.85;;;14.10;99.90;;;;;;5055871;28;20610;-50
2023/08/31 06:35:16;;;;;;;7.60;5.43;;;14.30;99.90;;;;;;5055756;28;20226;-52
2023/08/31 06:37:42;;;;;;;10.95;5.10;;;14.40;99.90;;;;;;5055982;28;20176;-50
2023/08/31 06:40:08;;;;;;;6.05;4.75;;;14.20;99.90;;;;;;5055953;28;20222;-52
2023/08/31 06:42:35;;;;;;;7.63;5.63;;;14.30;99.90;;;;;;5055863;28;20175;-48
2023/08/31 06:45:02;;;;;;;9.55;5.00;;;14.40;99.90;;;;;;5055765;28;20184;-51
2023/08/31 06:47:28;;;;;;;11.65;5.45;;;14.50;99.90;;;;;;5055683;28;20183;-51
2023/08/31 06:49:53;;;;;;;10.10;6.60;;;14.60;99.90;;;;;;5055115;28;20261;-52
2023/08/31 06:52:19;;;;;;;10.27;6.72;;;14.70;99.90;;;;;;5055766;28;20171;-52
2023/08/31 06:54:44;;;;;;;5.60;4.80;;;14.60;99.90;;;;;;5055619;28;20672;-50
2023/08/31 06:57:10;;;;;;;10.65;4.90;;;14.50;99.90;;;;;;5055618;28;20179;-50
2023/08/31 06:59:36;;;;;;;7.95;5.75;;;14.40;99.90;;;;;;5055555;28;20202;-49
2023/08/31 07:02:01;;;;;;;7.88;4.93;;;14.40;99.90;;;;;;5055390;28;20270;-50
2023/08/31 07:04:28;;;;;;;8.88;5.63;;;14.30;99.90;;;;;;5055254;28;20175;-50
2023/08/31 07:06:53;;;;;;;7.43;4.93;;;14.30;99.90;;;;;;5054251;28;20179;-50
2023/08/31 07:09:19;;;;;;;8.13;5.00;;;14.30;99.90;;;;;;5055406;28;20175;-50
2023/08/31 07:11:44;;;;;;;7.65;5.30;;;14.20;99.90;;;;;;5055362;28;20651;-50
2023/08/31 07:14:10;;;;;;;10.00;5.82;;;14.30;99.90;;;;;;5055069;28;20218;-50
2023/08/31 07:16:36;;;;;;;7.88;5.50;;;14.30;99.90;;;;;;5055164;28;20182;-50
2023/08/31 07:19:02;;;;;;;8.93;5.53;;;14.30;99.90;;;;;;5054851;28;20179;-50
2023/08/31 07:21:28;;;;;;;6.45;4.97;;;14.50;99.90;;;;;;5055089;28;20229;-51
2023/08/31 07:23:54;;;;;;;10.27;5.50;;;14.60;99.90;;;;;;5054946;28;20624;-51
2023/08/31 07:26:20;;;;;;;5.57;4.75;;;14.70;99.90;;;;;;5055142;28;20175;-50
2023/08/31 07:28:46;;;;;;;8.88;5.13;;;14.80;99.90;;;;;;5054964;28;20171;-51
2023/08/31 07:31:12;;;;;;;7.97;5.00;;;14.90;99.90;;;;;;5054837;28;20580;-50
2023/08/31 07:33:38;;;;;;;7.75;5.13;;;15.00;99.90;;;;;;5054615;28;20175;-50
2023/08/31 07:36:05;;;;;;;7.03;4.90;;;15.10;99.90;;;;;;5054925;28;20206;-52
2023/08/31 07:38:31;;;;;;;7.63;5.28;;;15.20;99.90;;;;;;5054829;28;20217;-52
2023/08/31 07:40:57;;;;;;;7.18;5.18;;;15.30;99.90;;;;;;5054747;28;20176;-50
2023/08/31 07:43:23;;;;;;;9.30;5.80;;;15.40;99.90;;;;;;5054648;28;20199;-49
2023/08/31 07:45:49;;;;;;;6.75;4.88;;;15.40;99.90;;;;;;5054588;28;20186;-49
2023/08/31 07:48:15;;;;;;;7.60;4.93;;;15.60;99.90;;;;;;5054461;28;20250;-47
2023/08/31 07:50:42;;;;;;;8.18;4.95;;;15.60;99.90;;;;;;5054640;28;20187;-50
2023/08/31 07:53:07;;;;;;;10.40;5.10;;;15.70;99.90;;;;;;5054534;28;20274;-47
2023/08/31 07:55:33;;;;;;;7.68;5.05;;;15.70;99.90;;;;;;5054360;28;20345;-49
2023/08/31 07:57:59;;;;;;;11.05;5.32;;;15.90;99.90;;;;;;5054389;28;20599;-52
2023/08/31 08:00:24;;;;;;;8.25;4.85;;;16.10;99.90;;;;;;5054311;28;20258;-51
2023/08/31 08:02:50;;;;;;;9.02;4.75;;;16.10;99.90;;;;;;5053423;28;20179;-52
2023/08/31 08:05:15;;;;;;;8.23;4.57;;;16.30;99.90;;;;;;5054365;28;20536;-51
2023/08/31 08:07:42;;;;;;;8.93;5.45;;;16.40;99.90;;;;;;5054121;28;20179;-51
2023/08/31 08:10:09;;;;;;;7.38;5.05;;;16.50;99.90;;;;;;5054231;28;20179;-47
2023/08/31 08:12:44;;;;;;;7.28;4.70;;;16.50;99.90;;;;;;5054095;28;20171;-51
2023/08/31 08:15:10;;;;;;;8.10;4.80;;;16.60;99.90;;;;;;5053920;28;20687;-51
2023/08/31 08:17:36;;;;;;;9.23;4.82;;;16.70;99.90;;;;;;5053890;28;20258;-52
2023/08/31 08:20:02;;;;;;;8.93;4.85;;;16.90;99.90;;;;;;5054087;28;20322;-51
2023/08/31 08:22:28;;;;;;;8.02;5.00;;;16.90;99.90;;;;;;5054014;28;20632;-52
2023/08/31 08:24:54;;;;;;;9.10;4.68;;;17.00;99.90;;;;;;5053946;28;20197;-53
2023/08/31 08:27:20;;;;;;;7.07;4.60;;;17.10;99.90;;;;;;5053972;28;20179;-51
2023/08/31 08:29:46;;;;;;;6.55;4.70;;;17.20;99.90;;;;;;5053785;28;20168;-49
2023/08/31 08:32:12;;;;;;;7.63;4.57;;;17.20;99.90;;;;;;5053557;28;20205;-49
2023/08/31 08:34:38;;;;;;;7.05;4.75;;;17.40;99.90;;;;;;5053736;28;20219;-49
2023/08/31 08:37:04;;;;;;;7.45;4.15;;;17.40;99.90;;;;;;5053712;28;20233;-51
2023/08/31 08:39:30;;;;;;;10.25;4.22;;;17.60;99.90;;;;;;5053651;28;20182;-50
2023/08/31 08:41:58;;;;;;;10.38;4.70;;;17.60;99.90;;;;;;5053564;28;20171;-52
2023/08/31 08:44:26;;;;;;;8.85;4.63;;;17.70;99.90;;;;;;5053431;28;20175;-51
2023/08/31 08:46:52;;;;;;;6.57;4.20;;;17.70;99.90;;;;;;5053362;28;20317;-51
2023/08/31 08:49:23;;;;;;;6.30;4.25;;;17.80;99.90;;;;;;5053613;28;20175;-52
2023/08/31 08:51:50;;;;;;;10.57;4.40;;;18.00;99.90;;;;;;5053577;28;20163;-52
2023/08/31 08:54:18;;;;;;;9.55;4.40;;;18.10;99.90;;;;;;5053331;28;20198;-52
2023/08/31 08:56:43;;;;;;;6.57;3.88;;;18.20;99.90;;;;;;5053388;28;20179;-52
2023/08/31 08:59:13;;;;;;;6.20;4.25;;;18.30;99.90;;;;;;5053237;28;20233;-51
2023/08/31 09:01:39;;;;;;;7.45;4.00;;;18.20;99.90;;;;;;5053383;28;20171;-52
2023/08/31 09:04:06;;;;;;;8.23;4.20;;;18.30;99.90;;;;;;5053363;28;20226;-52
2023/08/31 09:06:32;;;;;;;7.43;4.30;;;18.30;99.90;;;;;;5053510;28;20182;-49
2023/08/31 09:08:58;;;;;;;6.50;4.00;;;18.40;99.90;;;;;;5053196;28;20175;-52
2023/08/31 09:11:25;;;;;;;8.43;4.43;;;18.50;99.90;;;;;;5053261;28;20179;-53
2023/08/31 09:13:51;;;;;;;8.80;4.40;;;18.50;99.90;;;;;;5052757;28;20183;-47
2023/08/31 09:16:28;;;;;;;8.38;4.68;;;18.60;99.90;;;;;;5053253;28;20663;-52
2023/08/31 09:18:55;;;;;;;6.72;4.20;;;18.80;99.90;;;;;;5052956;28;20175;-50
2023/08/31 09:21:21;;;;;;;8.63;3.95;;;18.80;99.90;;;;;;5053090;28;20167;-52
2023/08/31 09:23:59;;;;;;;6.28;3.65;;;18.90;99.90;;;;;;5052920;28;20178;-48
2023/08/31 09:26:24;;;;;;;6.13;3.90;;;19.10;99.90;;;;;;5052899;28;20212;-48
2023/08/31 09:28:51;;;;;;;6.13;3.50;;;19.00;99.90;;;;;;5053189;28;20167;-49
2023/08/31 09:31:17;;;;;;;7.00;3.42;;;19.00;99.90;;;;;;5053110;28;20175;-51
2023/08/31 09:33:51;;;;;;;8.05;3.83;;;18.90;99.90;;;;;;5052952;28;20312;-51
2023/08/31 09:36:17;;;;;;;7.45;3.38;;;18.70;99.90;;;;;;5052906;28;20205;-47
2023/08/31 09:38:44;;;;;;;9.13;3.22;;;18.60;99.90;;;;;;5052821;28;20230;-50
2023/08/31 09:41:09;;;;;;;7.22;3.40;;;18.60;99.90;;;;;;5053074;28;20301;-51
2023/08/31 09:43:35;;;;;;;8.68;3.55;;;18.70;99.90;;;;;;5052930;28;20258;-50
2023/08/31 09:46:03;;;;;;;3.47;2.90;;;18.50;99.90;;;;;;5052874;28;20186;-48
2023/08/31 09:48:30;;;;;;;8.15;3.67;;;18.60;99.90;;;;;;5052894;28;20301;-51
2023/08/31 09:50:56;;;;;;;5.78;3.08;;;18.60;99.90;;;;;;5052779;28;20175;-52
2023/08/31 09:53:24;;;;;;;7.13;3.13;;;18.90;99.90;;;;;;5052612;28;20497;-50
2023/08/31 09:55:51;;;;;;;6.22;3.45;;;18.90;99.90;;;;;;5052670;28;20214;-53
2023/08/31 09:58:21;;;;;;;6.47;3.33;;;19.10;99.90;;;;;;5053114;28;20168;-50
2023/08/31 10:00:49;;;;;;;8.13;3.45;;;19.00;99.90;;;;;;5052838;28;20263;-48
2023/08/31 10:03:17;;;;;;;8.90;3.75;;;19.30;99.90;;;;;;5052726;28;20171;-52
2023/08/31 10:05:44;;;;;;;5.18;3.00;;;19.50;99.90;;;;;;5052710;28;20203;-52
2023/08/31 10:08:11;;;;;;;6.15;2.92;;;19.50;99.90;;;;;;5052567;28;20214;-50
2023/08/31 10:10:38;;;;;;;7.40;3.33;;;19.80;99.90;;;;;;5052851;28;20176;-51
2023/08/31 10:13:07;;;;;;;5.47;2.33;;;19.90;99.90;;;;;;5052743;28;20179;-51
2023/08/31 10:15:35;;;;;;;5.95;3.50;;;20.10;99.90;;;;;;5052555;28;20297;-52
2023/08/31 10:18:02;;;;;;;5.65;3.25;;;20.20;99.90;;;;;;5052699;28;20177;-53
2023/08/31 10:20:33;;;;;;;6.90;3.22;;;20.20;99.90;;;;;;5052545;28;20219;-48
2023/08/31 10:23:00;;;;;;;6.43;2.75;;;20.20;99.90;;;;;;5052628;28;20647;-50
2023/08/31 10:25:45;;;;;;;4.63;2.30;;;20.20;99.90;;;;;;5054473;28;20640;-51
2023/08/31 10:28:22;;;;;;;4.78;2.33;;;20.20;99.90;;;;;;5055967;28;20176;-51
2023/08/31 10:31:15;;;;;;;5.07;2.33;;;20.50;99.90;;;;;;5056040;28;20179;-47
2023/08/31 10:33:42;;;;;;;3.75;1.80;;;20.80;99.90;;;;;;5056123;28;20217;-48
2023/08/31 10:36:18;;;;;;;4.63;2.00;;;20.70;99.90;;;;;;5056147;28;20186;-49
2023/08/31 10:38:59;;;;;;;5.55;2.42;;;20.60;99.90;;;;;;5056047;28;20170;-48
2023/08/31 10:41:25;;;;;;;5.28;2.22;;;20.40;99.90;;;;;;5055829;28;20701;-52
2023/08/31 10:43:59;;;;;;;6.38;2.30;;;20.60;99.90;;;;;;5055942;28;20175;-51
2023/08/31 10:46:30;;;;;;;6.07;2.15;;;20.60;99.90;;;;;;5054624;28;20509;-51
2023/08/31 10:48:58;;;;;;;4.25;2.05;;;20.70;99.90;;;;;;5055860;28;20552;-53
2023/08/31 10:51:26;;;;;;;4.78;2.22;;;20.70;99.90;;;;;;5055731;28;20171;-47
2023/08/31 10:53:52;;;;;;;5.82;2.08;;;20.60;99.90;;;;;;5055465;28;20559;-52
2023/08/31 10:56:18;;;;;;;4.32;1.98;;;20.80;99.90;;;;;;5055828;28;20181;-53
2023/08/31 10:59:04;;;;;;;2.88;1.77;;;20.90;99.90;;;;;;5055439;28;20525;-50
2023/08/31 11:01:54;;;;;;;4.30;2.10;;;21.00;99.90;;;;;;5055269;28;20552;-50
2023/08/31 11:04:24;;;;;;;6.18;1.90;;;21.00;99.90;;;;;;5055348;28;20260;-49
2023/08/31 11:07:19;;;;;;;5.20;1.90;;;20.50;99.90;;;;;;5055552;28;20218;-48
2023/08/31 11:09:46;;;;;;;2.88;1.80;;;20.30;99.90;;;;;;5055255;28;20179;-52
2023/08/31 11:12:13;;;;;;;4.90;2.03;;;20.30;99.90;;;;;;5055194;28;20187;-52
2023/08/31 11:14:39;;;;;;;7.25;2.13;;;20.30;99.90;;;;;;5055021;28;20227;-50
2023/08/31 11:17:05;;;;;;;5.18;2.00;;;20.50;99.90;;;;;;5055172;28;20593;-51
2023/08/31 11:19:35;;;;;;;4.25;2.08;;;20.70;99.90;;;;;;5055023;28;20230;-53
2023/08/31 11:22:02;;;;;;;3.20;1.65;;;20.80;99.90;;;;;;5055105;28;20171;-52
2023/08/31 11:24:29;;;;;;;1.90;1.70;;;20.90;99.90;;;;;;5055069;28;20258;-50
2023/08/31 11:26:55;;;;;;;6.80;2.22;;;20.90;99.90;;;;;;5054757;28;20579;-48
2023/08/31 11:29:21;;;;;;;6.03;1.90;;;20.70;99.90;;;;;;5054812;28;20186;-51
2023/08/31 11:31:46;;;;;;;5.43;1.83;;;20.50;99.90;;;;;;5055015;28;20183;-51
2023/08/31 11:34:13;;;;;;;5.15;2.53;;;20.60;99.90;;;;;;5054808;28;20613;-50
2023/08/31 11:36:41;;;;;;;5.93;2.00;;;20.60;99.90;;;;;;5053715;28;20182;-52
2023/08/31 11:39:08;;;;;;;3.17;2.20;;;20.40;99.90;;;;;;5054671;28;20652;-48
2023/08/31 11:41:36;;;;;;;4.57;1.90;;;20.40;99.90;;;;;;5054594;28;20250;-51
2023/08/31 11:44:05;;;;;;;4.53;1.98;;;20.40;99.90;;;;;;5054512;28;20176;-52
2023/08/31 11:46:32;;;;;;;2.60;1.88;;;20.40;99.90;;;;;;5054524;28;20171;-52
2023/08/31 11:48:59;;;;;;;3.92;2.00;;;20.50;99.90;;;;;;5054657;28;20191;-47
2023/08/31 11:51:29;;;;;;;3.72;1.88;;;20.20;99.90;;;;;;5054862;28;20179;-49
2023/08/31 11:53:56;;;;;;;3.15;1.90;;;20.10;99.90;;;;;;5054164;28;20628;-49
2023/08/31 11:56:21;;;;;;;5.88;2.30;;;20.10;99.90;;;;;;5054278;28;20172;-52
2023/08/31 11:58:50;;;;;;;5.15;2.35;;;19.90;99.90;;;;;;5054532;28;20183;-51
2023/08/31 12:01:23;;;;;;;4.88;2.10;;;19.90;99.90;;;;;;5054592;28;20262;-47
2023/08/31 12:03:49;;;;;;;3.75;2.15;;;19.70;99.90;;;;;;5054339;28;20175;-51
2023/08/31 12:06:18;;;;;;;5.57;2.35;;;19.60;99.90;;;;;;5054404;28;20175;-50
2023/08/31 12:08:44;;;;;;;3.60;2.30;;;19.50;99.90;;;;;;5054212;28;20167;-51
2023/08/31 12:11:10;;;;;;;5.45;2.08;;;19.40;99.90;;;;;;5054119;28;20240;-52
2023/08/31 12:13:36;;;;;;;3.95;2.00;;;19.60;99.90;;;;;;5054195;28;20583;-51
2023/08/31 12:16:04;;;;;;;4.10;1.95;;;19.90;99.90;;;;;;5054027;28;20292;-51
2023/08/31 12:18:33;;;;;;;3.47;1.92;;;20.20;99.90;;;;;;5053886;28;20716;-51
2023/08/31 12:20:59;;;;;;;4.05;1.90;;;20.30;99.90;;;;;;5053882;28;20641;-51
2023/08/31 12:23:26;;;;;;;4.35;2.03;;;20.30;99.90;;;;;;5053864;28;20225;-52
2023/08/31 12:25:53;;;;;;;6.40;2.42;;;20.10;99.90;;;;;;5053819;28;20187;-52
2023/08/31 12:28:20;;;;;;;5.93;1.80;;;19.90;99.90;;;;;;5053980;28;20644;-48
2023/08/31 12:30:53;;;;;;;4.72;2.00;;;19.80;99.90;;;;;;5053907;28;20193;-52
2023/08/31 12:33:20;;;;;;;5.18;2.05;;;19.90;99.90;;;;;;5053895;28;20472;-52
2023/08/31 12:35:46;;;;;;;3.45;1.90;;;19.90;99.90;;;;;;5053647;28;20203;-52
2023/08/31 12:38:12;;;;;;;4.45;1.95;;;19.90;99.90;;;;;;5053610;28;20243;-49
2023/08/31 12:40:38;;;;;;;5.45;2.20;;;19.90;99.90;;;;;;5053783;28;20202;-50
2023/08/31 12:43:05;;;;;;;6.97;2.15;;;19.90;99.90;;;;;;5053721;28;20225;-52
2023/08/31 12:45:31;;;;;;;6.47;2.30;;;20.00;99.90;;;;;;5053539;28;20186;-51
2023/08/31 12:47:57;;;;;;;5.25;2.10;;;19.90;99.90;;;;;;5053267;28;20188;-48